sensor_id;sensor_type;location;lat;lon;timestamp;pressure;altitude;pressure_sealevel;temperature;humidity
61528;BME280;47395;42.032;-8.634;2023-05-27T00:00:47;100778.06;;;17.93;85.85
61528;BME280;47395;42.032;-8.634;2023-05-27T00:02:48;100775.06;;;17.75;86.62
61528;BME280;47395;42.032;-8.634;2023-05-27T00:04:49;100770.31;;;17.67;86.46
61528;BME280;47395;42.032;-8.634;2023-05-27T00:06:50;100777.44;;;17.55;87.45
61528;BME280;47395;42.032;-8.634;2023-05-27T00:08:50;100770.78;;;17.49;88.26
61528;BME280;47395;42.032;-8.634;2023-05-27T00:10:51;100768.38;;;17.46;87.83
61528;BME280;47395;42.032;-8.634;2023-05-27T00:12:52;100765.81;;;17.56;87.73
61528;BME280;47395;42.032;-8.634;2023-05-27T00:14:53;100760.50;;;17.56;87.45
61528;BME280;47395;42.032;-8.634;2023-05-27T00:16:54;100764.28;;;17.65;86.84
61528;BME280;47395;42.032;-8.634;2023-05-27T00:18:55;100758.31;;;17.73;86.51
61528;BME280;47395;42.032;-8.634;2023-05-27T00:20:56;100759.78;;;17.77;86.10
61528;BME280;47395;42.032;-8.634;2023-05-27T00:22:57;100761.84;;;17.73;85.88
61528;BME280;47395;42.032;-8.634;2023-05-27T00:24:59;100753.72;;;17.64;85.96
61528;BME280;47395;42.032;-8.634;2023-05-27T00:27:00;100750.72;;;17.68;86.13
61528;BME280;47395;42.032;-8.634;2023-05-27T00:29:02;100753.59;;;17.54;86.71
61528;BME280;47395;42.032;-8.634;2023-05-27T00:31:02;100747.91;;;17.47;87.46
61528;BME280;47395;42.032;-8.634;2023-05-27T00:33:03;100749.22;;;17.41;86.97
61528;BME280;47395;42.032;-8.634;2023-05-27T00:35:05;100749.47;;;17.38;87.27
61528;BME280;47395;42.032;-8.634;2023-05-27T00:37:06;100744.88;;;17.29;87.31
61528;BME280;47395;42.032;-8.634;2023-05-27T00:39:08;100742.78;;;17.21;87.89
61528;BME280;47395;42.032;-8.634;2023-05-27T00:41:11;100745.44;;;17.21;87.72
61528;BME280;47395;42.032;-8.634;2023-05-27T00:43:12;100735.03;;;17.18;87.60
61528;BME280;47395;42.032;-8.634;2023-05-27T00:45:13;100740.66;;;17.02;88.26
61528;BME280;47395;42.032;-8.634;2023-05-27T00:47:15;100741.50;;;17.02;88.42
61528;BME280;47395;42.032;-8.634;2023-05-27T00:49:17;100734.59;;;17.00;88.41
61528;BME280;47395;42.032;-8.634;2023-05-27T00:51:19;100735.69;;;16.97;88.88
61528;BME280;47395;42.032;-8.634;2023-05-27T00:53:21;100730.75;;;17.04;89.03
61528;BME280;47395;42.032;-8.634;2023-05-27T00:55:24;100723.50;;;17.06;88.61
61528;BME280;47395;42.032;-8.634;2023-05-27T00:57:25;100723.38;;;17.07;88.25
61528;BME280;47395;42.032;-8.634;2023-05-27T00:59:27;100728.06;;;17.04;88.27
61528;BME280;47395;42.032;-8.634;2023-05-27T01:01:28;100721.66;;;16.95;88.61
61528;BME280;47395;42.032;-8.634;2023-05-27T01:03:29;100724.66;;;16.90;89.05
61528;BME280;47395;42.032;-8.634;2023-05-27T01:05:33;100720.63;;;16.84;89.24
61528;BME280;47395;42.032;-8.634;2023-05-27T01:10:10;100727.75;;;16.73;89.71
61528;BME280;47395;42.032;-8.634;2023-05-27T01:14:28;100736.41;;;16.63;90.22
61528;BME280;47395;42.032;-8.634;2023-05-27T01:16:31;100730.34;;;16.61;90.40
61528;BME280;47395;42.032;-8.634;2023-05-27T01:18:33;100739.06;;;16.63;90.57
61528;BME280;47395;42.032;-8.634;2023-05-27T01:20:36;100736.31;;;16.65;90.48
61528;BME280;47395;42.032;-8.634;2023-05-27T01:22:44;100735.00;;;16.70;90.35
61528;BME280;47395;42.032;-8.634;2023-05-27T01:24:46;100738.28;;;16.74;89.96
61528;BME280;47395;42.032;-8.634;2023-05-27T01:26:48;100728.47;;;16.75;89.19
61528;BME280;47395;42.032;-8.634;2023-05-27T01:28:50;100729.31;;;16.75;89.13
61528;BME280;47395;42.032;-8.634;2023-05-27T01:30:55;100724.84;;;16.76;88.90
61528;BME280;47395;42.032;-8.634;2023-05-27T01:33:23;100732.84;;;16.76;88.75
61528;BME280;47395;42.032;-8.634;2023-05-27T01:35:31;100720.25;;;16.78;88.17
61528;BME280;47395;42.032;-8.634;2023-05-27T01:37:37;100737.41;;;16.74;87.79
61528;BME280;47395;42.032;-8.634;2023-05-27T01:39:39;100724.47;;;16.69;88.25
61528;BME280;47395;42.032;-8.634;2023-05-27T01:41:42;100733.28;;;16.69;88.14
61528;BME280;47395;42.032;-8.634;2023-05-27T01:43:47;100730.72;;;16.68;88.30
61528;BME280;47395;42.032;-8.634;2023-05-27T01:45:48;100730.88;;;16.66;87.82
61528;BME280;47395;42.032;-8.634;2023-05-27T01:47:50;100724.47;;;16.69;87.63
61528;BME280;47395;42.032;-8.634;2023-05-27T01:49:51;100733.41;;;16.68;87.97
61528;BME280;47395;42.032;-8.634;2023-05-27T01:51:52;100730.00;;;16.66;87.81
61528;BME280;47395;42.032;-8.634;2023-05-27T01:53:52;100724.47;;;16.69;87.71
61528;BME280;47395;42.032;-8.634;2023-05-27T01:55:53;100722.63;;;16.69;87.55
61528;BME280;47395;42.032;-8.634;2023-05-27T01:57:54;100718.06;;;16.72;87.50
61528;BME280;47395;42.032;-8.634;2023-05-27T01:59:55;100711.66;;;16.74;86.96
61528;BME280;47395;42.032;-8.634;2023-05-27T02:01:57;100708.41;;;16.70;87.10
61528;BME280;47395;42.032;-8.634;2023-05-27T02:03:58;100720.78;;;16.58;86.60
61528;BME280;47395;42.032;-8.634;2023-05-27T02:05:59;100725.66;;;16.65;86.95
61528;BME280;47395;42.032;-8.634;2023-05-27T02:08:00;100711.97;;;16.58;87.12
61528;BME280;47395;42.032;-8.634;2023-05-27T02:10:02;100719.97;;;16.58;87.42
61528;BME280;47395;42.032;-8.634;2023-05-27T02:12:03;100717.19;;;16.60;87.44
61528;BME280;47395;42.032;-8.634;2023-05-27T02:14:06;100717.78;;;16.63;87.47
61528;BME280;47395;42.032;-8.634;2023-05-27T02:16:07;100727.56;;;16.63;87.30
61528;BME280;47395;42.032;-8.634;2023-05-27T02:18:09;100730.00;;;16.66;87.10
61528;BME280;47395;42.032;-8.634;2023-05-27T02:20:11;100720.72;;;16.72;87.10
61528;BME280;47395;42.032;-8.634;2023-05-27T02:22:15;100723.53;;;16.81;86.73
61528;BME280;47395;42.032;-8.634;2023-05-27T02:24:15;100721.63;;;16.83;86.30
61528;BME280;47395;42.032;-8.634;2023-05-27T02:26:16;100715.31;;;16.84;85.96
61528;BME280;47395;42.032;-8.634;2023-05-27T02:28:17;100719.91;;;17.07;85.08
61528;BME280;47395;42.032;-8.634;2023-05-27T02:30:18;100717.22;;;17.07;84.76
61528;BME280;47395;42.032;-8.634;2023-05-27T02:32:19;100728.50;;;17.11;84.30
61528;BME280;47395;42.032;-8.634;2023-05-27T02:34:20;100723.91;;;17.24;83.63
61528;BME280;47395;42.032;-8.634;2023-05-27T02:36:21;100715.94;;;17.35;83.20
61528;BME280;47395;42.032;-8.634;2023-05-27T02:38:24;100722.72;;;17.40;82.50
61528;BME280;47395;42.032;-8.634;2023-05-27T02:40:26;100721.16;;;17.37;82.50
61528;BME280;47395;42.032;-8.634;2023-05-27T02:42:29;100724.53;;;17.39;82.51
61528;BME280;47395;42.032;-8.634;2023-05-27T02:44:30;100728.41;;;17.35;82.55
61528;BME280;47395;42.032;-8.634;2023-05-27T02:46:31;100718.34;;;17.39;82.01
61528;BME280;47395;42.032;-8.634;2023-05-27T02:48:32;100714.72;;;17.28;82.24
61528;BME280;47395;42.032;-8.634;2023-05-27T02:50:33;100716.06;;;17.34;82.16
61528;BME280;47395;42.032;-8.634;2023-05-27T02:52:34;100709.56;;;16.91;83.17
61528;BME280;47395;42.032;-8.634;2023-05-27T02:54:35;100716.41;;;17.18;83.01
61528;BME280;47395;42.032;-8.634;2023-05-27T02:56:36;100714.84;;;17.27;82.33
61528;BME280;47395;42.032;-8.634;2023-05-27T02:58:37;100724.28;;;17.19;82.67
61528;BME280;47395;42.032;-8.634;2023-05-27T03:00:39;100716.28;;;17.19;82.76
61528;BME280;47395;42.032;-8.634;2023-05-27T03:02:40;100713.41;;;17.34;81.96
61528;BME280;47395;42.032;-8.634;2023-05-27T03:04:41;100715.56;;;17.40;81.21
61528;BME280;47395;42.032;-8.634;2023-05-27T03:06:42;100720.91;;;17.52;80.96
61528;BME280;47395;42.032;-8.634;2023-05-27T03:08:44;100725.88;;;17.56;80.43
61528;BME280;47395;42.032;-8.634;2023-05-27T03:10:45;100728.91;;;17.52;79.53
61528;BME280;47395;42.032;-8.634;2023-05-27T03:12:46;100727.78;;;17.66;79.74
61528;BME280;47395;42.032;-8.634;2023-05-27T03:14:47;100723.81;;;17.48;79.86
61528;BME280;47395;42.032;-8.634;2023-05-27T03:16:48;100726.09;;;17.42;80.14
61528;BME280;47395;42.032;-8.634;2023-05-27T03:18:50;100730.84;;;17.02;81.17
61528;BME280;47395;42.032;-8.634;2023-05-27T03:20:51;100731.50;;;17.06;80.83
61528;BME280;47395;42.032;-8.634;2023-05-27T03:22:52;100726.34;;;16.91;81.18
61528;BME280;47395;42.032;-8.634;2023-05-27T03:24:53;100721.81;;;16.69;82.54
61528;BME280;47395;42.032;-8.634;2023-05-27T03:26:55;100715.44;;;16.47;83.67
61528;BME280;47395;42.032;-8.634;2023-05-27T03:28:56;100730.50;;;16.35;84.50
61528;BME280;47395;42.032;-8.634;2023-05-27T03:30:58;100729.69;;;16.22;85.15
61528;BME280;47395;42.032;-8.634;2023-05-27T03:33:11;100724.47;;;16.20;85.36
61528;BME280;47395;42.032;-8.634;2023-05-27T03:35:12;100726.91;;;16.23;85.30
61528;BME280;47395;42.032;-8.634;2023-05-27T03:37:14;100718.91;;;16.23;85.17
61528;BME280;47395;42.032;-8.634;2023-05-27T03:39:32;100722.75;;;16.19;84.90
61528;BME280;47395;42.032;-8.634;2023-05-27T03:41:34;100724.56;;;15.94;86.08
61528;BME280;47395;42.032;-8.634;2023-05-27T03:43:36;100724.34;;;15.97;86.12
61528;BME280;47395;42.032;-8.634;2023-05-27T03:45:37;100722.31;;;16.01;85.88
61528;BME280;47395;42.032;-8.634;2023-05-27T03:47:38;100718.69;;;16.02;85.85
61528;BME280;47395;42.032;-8.634;2023-05-27T03:49:39;100721.00;;;15.93;86.14
61528;BME280;47395;42.032;-8.634;2023-05-27T03:51:40;100718.06;;;15.98;85.96
61528;BME280;47395;42.032;-8.634;2023-05-27T03:53:41;100715.41;;;15.98;85.85
61528;BME280;47395;42.032;-8.634;2023-05-27T03:55:44;100724.00;;;15.89;85.82
61528;BME280;47395;42.032;-8.634;2023-05-27T03:57:45;100726.78;;;15.87;85.85
61528;BME280;47395;42.032;-8.634;2023-05-27T03:59:45;100726.97;;;15.84;85.77
61528;BME280;47395;42.032;-8.634;2023-05-27T04:04:10;100732.66;;;15.79;86.01
61528;BME280;47395;42.032;-8.634;2023-05-27T04:06:11;100737.00;;;15.81;86.04
61528;BME280;47395;42.032;-8.634;2023-05-27T04:08:13;100737.19;;;15.77;85.98
61528;BME280;47395;42.032;-8.634;2023-05-27T04:10:15;100739.66;;;15.81;86.13
61528;BME280;47395;42.032;-8.634;2023-05-27T04:12:16;100735.16;;;15.81;86.33
61528;BME280;47395;42.032;-8.634;2023-05-27T04:14:17;100737.19;;;15.77;85.74
61528;BME280;47395;42.032;-8.634;2023-05-27T04:16:18;100738.88;;;15.78;85.66
61528;BME280;47395;42.032;-8.634;2023-05-27T04:18:19;100734.53;;;15.77;85.67
61528;BME280;47395;42.032;-8.634;2023-05-27T04:20:22;100733.47;;;15.80;85.57
61528;BME280;47395;42.032;-8.634;2023-05-27T04:22:27;100736.78;;;15.71;86.05
61528;BME280;47395;42.032;-8.634;2023-05-27T04:24:28;100741.78;;;15.75;85.87
61528;BME280;47395;42.032;-8.634;2023-05-27T04:26:29;100743.47;;;15.76;85.93
61528;BME280;47395;42.032;-8.634;2023-05-27T04:28:31;100743.13;;;15.81;85.94
61528;BME280;47395;42.032;-8.634;2023-05-27T04:30:32;100745.69;;;15.83;86.13
61528;BME280;47395;42.032;-8.634;2023-05-27T04:32:34;100742.81;;;15.86;86.17
61528;BME280;47395;42.032;-8.634;2023-05-27T04:34:39;100744.41;;;15.88;86.04
61528;BME280;47395;42.032;-8.634;2023-05-27T04:36:42;100739.59;;;15.93;85.73
61528;BME280;47395;42.032;-8.634;2023-05-27T04:38:48;100741.13;;;15.98;85.41
61528;BME280;47395;42.032;-8.634;2023-05-27T04:40:49;100751.19;;;15.92;85.59
61528;BME280;47395;42.032;-8.634;2023-05-27T04:43:16;100754.31;;;15.86;86.07
61528;BME280;47395;42.032;-8.634;2023-05-27T04:45:17;100755.25;;;15.85;86.05
61528;BME280;47395;42.032;-8.634;2023-05-27T04:47:19;100753.75;;;15.81;85.76
61528;BME280;47395;42.032;-8.634;2023-05-27T04:49:21;100755.38;;;15.71;86.27
61528;BME280;47395;42.032;-8.634;2023-05-27T04:51:23;100754.50;;;15.70;86.44
61528;BME280;47395;42.032;-8.634;2023-05-27T04:53:24;100755.69;;;15.66;86.12
61528;BME280;47395;42.032;-8.634;2023-05-27T04:55:26;100756.34;;;15.70;85.90
61528;BME280;47395;42.032;-8.634;2023-05-27T04:57:27;100761.22;;;15.63;85.86
61528;BME280;47395;42.032;-8.634;2023-05-27T04:59:29;100763.13;;;15.61;86.10
61528;BME280;47395;42.032;-8.634;2023-05-27T05:01:46;100754.84;;;15.65;86.18
61528;BME280;47395;42.032;-8.634;2023-05-27T05:04:18;100756.09;;;15.73;85.67
61528;BME280;47395;42.032;-8.634;2023-05-27T05:06:24;100752.69;;;15.84;85.36
61528;BME280;47395;42.032;-8.634;2023-05-27T05:08:25;100749.50;;;15.91;85.35
61528;BME280;47395;42.032;-8.634;2023-05-27T05:10:28;100747.28;;;15.98;84.38
61528;BME280;47395;42.032;-8.634;2023-05-27T05:12:30;100760.88;;;16.07;83.96
61528;BME280;47395;42.032;-8.634;2023-05-27T05:14:31;100768.63;;;16.10;83.69
61528;BME280;47395;42.032;-8.634;2023-05-27T05:16:33;100769.94;;;16.04;83.36
61528;BME280;47395;42.032;-8.634;2023-05-27T05:18:34;100768.75;;;15.95;83.51
61528;BME280;47395;42.032;-8.634;2023-05-27T05:20:35;100783.28;;;15.89;83.52
61528;BME280;47395;42.032;-8.634;2023-05-27T05:22:37;100776.84;;;15.81;83.74
61528;BME280;47395;42.032;-8.634;2023-05-27T05:24:38;100782.91;;;15.70;84.32
61528;BME280;47395;42.032;-8.634;2023-05-27T05:26:40;100788.50;;;15.65;84.35
61528;BME280;47395;42.032;-8.634;2023-05-27T05:28:41;100784.38;;;15.61;84.41
61528;BME280;47395;42.032;-8.634;2023-05-27T05:30:44;100789.69;;;15.61;84.54
61528;BME280;47395;42.032;-8.634;2023-05-27T05:32:48;100787.56;;;15.40;85.57
61528;BME280;47395;42.032;-8.634;2023-05-27T05:34:50;100795.53;;;15.40;85.90
61528;BME280;47395;42.032;-8.634;2023-05-27T05:36:52;100782.03;;;15.43;85.82
61528;BME280;47395;42.032;-8.634;2023-05-27T05:38:53;100786.06;;;15.49;85.51
61528;BME280;47395;42.032;-8.634;2023-05-27T05:40:54;100788.19;;;15.57;85.45
61528;BME280;47395;42.032;-8.634;2023-05-27T05:42:56;100803.19;;;15.71;85.15
61528;BME280;47395;42.032;-8.634;2023-05-27T05:44:57;100794.25;;;15.85;84.29
61528;BME280;47395;42.032;-8.634;2023-05-27T05:46:58;100806.72;;;15.97;84.11
61528;BME280;47395;42.032;-8.634;2023-05-27T05:49:00;100807.53;;;16.11;83.63
61528;BME280;47395;42.032;-8.634;2023-05-27T05:51:10;100813.69;;;16.24;83.31
61528;BME280;47395;42.032;-8.634;2023-05-27T05:53:11;100820.03;;;16.35;82.71
61528;BME280;47395;42.032;-8.634;2023-05-27T05:55:12;100815.84;;;16.43;82.31
61528;BME280;47395;42.032;-8.634;2023-05-27T05:57:13;100822.72;;;16.59;81.53
61528;BME280;47395;42.032;-8.634;2023-05-27T05:59:14;100824.78;;;16.80;81.22
61528;BME280;47395;42.032;-8.634;2023-05-27T06:01:16;100829.81;;;16.96;80.42
61528;BME280;47395;42.032;-8.634;2023-05-27T06:03:17;100819.00;;;17.11;79.55
61528;BME280;47395;42.032;-8.634;2023-05-27T06:05:22;100828.50;;;17.26;79.09
61528;BME280;47395;42.032;-8.634;2023-05-27T06:07:23;100832.91;;;17.50;78.20
61528;BME280;47395;42.032;-8.634;2023-05-27T06:09:28;100829.31;;;17.85;77.33
61528;BME280;47395;42.032;-8.634;2023-05-27T06:11:36;100833.22;;;18.16;75.81
61528;BME280;47395;42.032;-8.634;2023-05-27T06:13:37;100839.75;;;18.34;74.60
61528;BME280;47395;42.032;-8.634;2023-05-27T06:15:41;100833.69;;;18.44;74.23
61528;BME280;47395;42.032;-8.634;2023-05-27T06:17:44;100833.16;;;18.50;73.59
61528;BME280;47395;42.032;-8.634;2023-05-27T06:19:46;100830.59;;;18.71;73.31
61528;BME280;47395;42.032;-8.634;2023-05-27T06:21:47;100832.84;;;18.87;73.06
61528;BME280;47395;42.032;-8.634;2023-05-27T06:24:07;100828.34;;;19.21;71.56
61528;BME280;47395;42.032;-8.634;2023-05-27T06:26:11;100830.88;;;19.22;71.03
61528;BME280;47395;42.032;-8.634;2023-05-27T06:28:19;100839.31;;;19.17;71.26
61528;BME280;47395;42.032;-8.634;2023-05-27T06:30:20;100830.69;;;19.14;71.00
61528;BME280;47395;42.032;-8.634;2023-05-27T06:32:22;100833.75;;;18.98;71.75
61528;BME280;47395;42.032;-8.634;2023-05-27T06:34:23;100839.16;;;18.86;72.26
61528;BME280;47395;42.032;-8.634;2023-05-27T06:36:24;100837.31;;;18.87;73.04
61528;BME280;47395;42.032;-8.634;2023-05-27T06:38:25;100841.84;;;19.40;71.58
61528;BME280;47395;42.032;-8.634;2023-05-27T06:40:30;100852.69;;;20.22;70.10
61528;BME280;47395;42.032;-8.634;2023-05-27T06:42:32;100848.78;;;21.27;66.42
61528;BME280;47395;42.032;-8.634;2023-05-27T06:44:51;100850.47;;;22.06;63.47
61528;BME280;47395;42.032;-8.634;2023-05-27T06:46:55;100854.00;;;22.80;60.55
61528;BME280;47395;42.032;-8.634;2023-05-27T06:49:05;100854.97;;;23.79;57.55
61528;BME280;47395;42.032;-8.634;2023-05-27T06:51:08;100850.03;;;24.35;55.64
61528;BME280;47395;42.032;-8.634;2023-05-27T06:53:09;100856.94;;;24.89;54.11
61528;BME280;47395;42.032;-8.634;2023-05-27T06:55:25;100862.66;;;25.70;51.90
61528;BME280;47395;42.032;-8.634;2023-05-27T06:57:33;100866.03;;;25.38;53.38
61528;BME280;47395;42.032;-8.634;2023-05-27T06:59:43;100869.97;;;24.59;54.34
61528;BME280;47395;42.032;-8.634;2023-05-27T07:01:44;100869.94;;;24.51;55.22
61528;BME280;47395;42.032;-8.634;2023-05-27T07:03:48;100880.00;;;25.17;55.29
61528;BME280;47395;42.032;-8.634;2023-05-27T07:05:54;100879.59;;;26.75;50.93
61528;BME280;47395;42.032;-8.634;2023-05-27T07:07:56;100883.56;;;26.96;50.04
61528;BME280;47395;42.032;-8.634;2023-05-27T07:09:57;100889.09;;;28.40;45.81
61528;BME280;47395;42.032;-8.634;2023-05-27T07:12:00;100889.81;;;29.51;43.39
61528;BME280;47395;42.032;-8.634;2023-05-27T07:14:19;100893.78;;;29.05;43.49
61528;BME280;47395;42.032;-8.634;2023-05-27T07:16:20;100899.06;;;29.35;43.85
61528;BME280;47395;42.032;-8.634;2023-05-27T07:18:21;100888.03;;;28.56;46.89
61528;BME280;47395;42.032;-8.634;2023-05-27T07:20:23;100883.06;;;28.97;45.10
61528;BME280;47395;42.032;-8.634;2023-05-27T07:22:24;100885.31;;;28.93;44.52
61528;BME280;47395;42.032;-8.634;2023-05-27T07:24:27;100888.63;;;28.73;45.44
61528;BME280;47395;42.032;-8.634;2023-05-27T07:26:31;100892.41;;;29.38;44.46
61528;BME280;47395;42.032;-8.634;2023-05-27T07:28:32;100885.06;;;29.60;44.90
61528;BME280;47395;42.032;-8.634;2023-05-27T07:30:45;100886.97;;;31.33;40.11
61528;BME280;47395;42.032;-8.634;2023-05-27T07:32:46;100897.13;;;31.85;39.87
61528;BME280;47395;42.032;-8.634;2023-05-27T07:34:47;100891.09;;;32.49;37.19
61528;BME280;47395;42.032;-8.634;2023-05-27T07:36:48;100901.75;;;31.98;36.08
61528;BME280;47395;42.032;-8.634;2023-05-27T07:38:49;100903.41;;;32.06;36.67
61528;BME280;47395;42.032;-8.634;2023-05-27T07:40:50;100905.13;;;31.80;36.84
61528;BME280;47395;42.032;-8.634;2023-05-27T07:42:50;100907.16;;;30.21;40.29
61528;BME280;47395;42.032;-8.634;2023-05-27T07:44:53;100907.88;;;29.44;41.00
61528;BME280;47395;42.032;-8.634;2023-05-27T07:46:55;100894.56;;;29.78;40.69
61528;BME280;47395;42.032;-8.634;2023-05-27T07:48:57;100907.81;;;30.23;39.54
61528;BME280;47395;42.032;-8.634;2023-05-27T07:51:00;100906.84;;;31.41;37.43
61528;BME280;47395;42.032;-8.634;2023-05-27T07:53:00;100906.16;;;31.86;36.45
61528;BME280;47395;42.032;-8.634;2023-05-27T07:55:04;100910.00;;;30.55;38.50
61528;BME280;47395;42.032;-8.634;2023-05-27T07:57:05;100904.69;;;31.97;37.19
61528;BME280;47395;42.032;-8.634;2023-05-27T07:59:07;100912.59;;;33.10;35.38
61528;BME280;47395;42.032;-8.634;2023-05-27T08:01:08;100903.97;;;33.32;33.96
61528;BME280;47395;42.032;-8.634;2023-05-27T08:03:09;100912.09;;;34.58;32.86
61528;BME280;47395;42.032;-8.634;2023-05-27T08:05:35;100914.25;;;34.86;29.96
61528;BME280;47395;42.032;-8.634;2023-05-27T08:07:43;100911.97;;;35.38;30.78
61528;BME280;47395;42.032;-8.634;2023-05-27T08:09:51;100917.09;;;34.80;30.22
61528;BME280;47395;42.032;-8.634;2023-05-27T08:12:18;100915.78;;;33.00;33.07
61528;BME280;47395;42.032;-8.634;2023-05-27T08:14:30;100916.69;;;34.45;31.32
61528;BME280;47395;42.032;-8.634;2023-05-27T08:16:56;100912.88;;;33.71;32.85
61528;BME280;47395;42.032;-8.634;2023-05-27T08:19:17;100922.00;;;33.84;32.19
61528;BME280;47395;42.032;-8.634;2023-05-27T08:21:33;100922.81;;;33.40;33.48
61528;BME280;47395;42.032;-8.634;2023-05-27T08:24:11;100927.34;;;31.70;35.82
61528;BME280;47395;42.032;-8.634;2023-05-27T08:26:38;100923.72;;;32.10;34.77
61528;BME280;47395;42.032;-8.634;2023-05-27T08:28:55;100918.16;;;31.58;36.99
61528;BME280;47395;42.032;-8.634;2023-05-27T08:31:22;100932.66;;;34.30;32.41
61528;BME280;47395;42.032;-8.634;2023-05-27T08:33:28;100931.78;;;33.47;33.33
61528;BME280;47395;42.032;-8.634;2023-05-27T08:35:29;100938.25;;;34.72;31.35
61528;BME280;47395;42.032;-8.634;2023-05-27T08:37:31;100933.53;;;32.25;35.19
61528;BME280;47395;42.032;-8.634;2023-05-27T08:39:32;100944.41;;;29.63;40.61
61528;BME280;47395;42.032;-8.634;2023-05-27T08:41:41;100939.09;;;29.33;41.38
61528;BME280;47395;42.032;-8.634;2023-05-27T08:43:43;100927.03;;;29.14;41.87
61528;BME280;47395;42.032;-8.634;2023-05-27T08:45:45;100913.47;;;30.84;38.63
61528;BME280;47395;42.032;-8.634;2023-05-27T08:47:46;100911.25;;;32.41;36.80
61528;BME280;47395;42.032;-8.634;2023-05-27T08:49:53;100916.09;;;34.24;32.99
61528;BME280;47395;42.032;-8.634;2023-05-27T08:51:54;100917.28;;;34.47;32.17
61528;BME280;47395;42.032;-8.634;2023-05-27T08:53:59;100923.44;;;34.61;31.32
61528;BME280;47395;42.032;-8.634;2023-05-27T08:56:01;100927.44;;;35.20;30.77
61528;BME280;47395;42.032;-8.634;2023-05-27T08:58:05;100917.09;;;35.94;29.85
61528;BME280;47395;42.032;-8.634;2023-05-27T09:00:11;100918.56;;;37.30;28.35
61528;BME280;47395;42.032;-8.634;2023-05-27T09:02:15;100923.53;;;35.28;29.87
61528;BME280;47395;42.032;-8.634;2023-05-27T09:04:16;100918.44;;;35.67;29.48
61528;BME280;47395;42.032;-8.634;2023-05-27T09:06:17;100919.56;;;36.08;28.54
61528;BME280;47395;42.032;-8.634;2023-05-27T09:08:19;100915.03;;;37.01;28.75
61528;BME280;47395;42.032;-8.634;2023-05-27T09:10:20;100925.59;;;37.60;28.13
61528;BME280;47395;42.032;-8.634;2023-05-27T09:12:28;100923.94;;;37.59;26.05
61528;BME280;47395;42.032;-8.634;2023-05-27T09:14:29;100927.91;;;38.81;23.74
61528;BME280;47395;42.032;-8.634;2023-05-27T09:16:32;100918.41;;;38.16;24.37
61528;BME280;47395;42.032;-8.634;2023-05-27T09:18:35;100916.84;;;37.46;25.42
61528;BME280;47395;42.032;-8.634;2023-05-27T09:20:36;100911.97;;;34.83;28.44
61528;BME280;47395;42.032;-8.634;2023-05-27T09:22:38;100914.31;;;33.55;31.43
61528;BME280;47395;42.032;-8.634;2023-05-27T09:24:39;100910.97;;;32.04;33.51
61528;BME280;47395;42.032;-8.634;2023-05-27T09:26:40;100919.19;;;30.47;36.34
61528;BME280;47395;42.032;-8.634;2023-05-27T09:28:44;100919.41;;;29.02;39.46
61528;BME280;47395;42.032;-8.634;2023-05-27T09:30:45;100925.22;;;29.43;38.58
61528;BME280;47395;42.032;-8.634;2023-05-27T09:32:47;100926.31;;;28.68;39.76
61528;BME280;47395;42.032;-8.634;2023-05-27T09:34:48;100919.91;;;27.79;41.99
61528;BME280;47395;42.032;-8.634;2023-05-27T09:36:51;100926.31;;;27.62;42.83
61528;BME280;47395;42.032;-8.634;2023-05-27T09:38:53;100923.56;;;26.69;45.08
61528;BME280;47395;42.032;-8.634;2023-05-27T09:40:54;100916.44;;;26.44;46.29
61528;BME280;47395;42.032;-8.634;2023-05-27T09:42:56;100914.59;;;26.68;45.76
61528;BME280;47395;42.032;-8.634;2023-05-27T09:44:57;100913.19;;;26.81;45.69
61528;BME280;47395;42.032;-8.634;2023-05-27T09:46:59;100913.06;;;27.68;43.76
61528;BME280;47395;42.032;-8.634;2023-05-27T09:49:02;100907.13;;;28.18;43.32
61528;BME280;47395;42.032;-8.634;2023-05-27T09:51:04;100918.22;;;27.78;43.63
61528;BME280;47395;42.032;-8.634;2023-05-27T09:53:06;100918.78;;;27.73;44.34
61528;BME280;47395;42.032;-8.634;2023-05-27T09:55:08;100911.41;;;27.97;43.64
61528;BME280;47395;42.032;-8.634;2023-05-27T09:57:10;100915.41;;;28.01;43.49
61528;BME280;47395;42.032;-8.634;2023-05-27T09:59:13;100915.25;;;28.02;43.46
61528;BME280;47395;42.032;-8.634;2023-05-27T10:01:14;100910.47;;;27.89;43.87
61528;BME280;47395;42.032;-8.634;2023-05-27T10:03:20;100907.47;;;27.99;43.23
61528;BME280;47395;42.032;-8.634;2023-05-27T10:05:21;100919.06;;;27.93;44.71
61528;BME280;47395;42.032;-8.634;2023-05-27T10:07:23;100905.44;;;27.86;45.40
61528;BME280;47395;42.032;-8.634;2023-05-27T10:09:25;100915.72;;;27.76;45.32
61528;BME280;47395;42.032;-8.634;2023-05-27T10:11:30;100915.81;;;27.59;44.51
61528;BME280;47395;42.032;-8.634;2023-05-27T10:13:32;100923.63;;;27.39;45.03
61528;BME280;47395;42.032;-8.634;2023-05-27T10:15:33;100922.19;;;27.28;46.10
61528;BME280;47395;42.032;-8.634;2023-05-27T10:17:46;100922.97;;;27.14;45.31
61528;BME280;47395;42.032;-8.634;2023-05-27T10:19:55;100929.31;;;26.97;45.87
61528;BME280;47395;42.032;-8.634;2023-05-27T10:22:07;100932.66;;;26.68;46.71
61528;BME280;47395;42.032;-8.634;2023-05-27T10:24:10;100929.31;;;26.26;48.15
61528;BME280;47395;42.032;-8.634;2023-05-27T10:26:12;100931.50;;;26.22;48.38
61528;BME280;47395;42.032;-8.634;2023-05-27T10:28:33;100930.16;;;26.18;47.96
61528;BME280;47395;42.032;-8.634;2023-05-27T10:30:45;100930.00;;;26.11;48.64
61528;BME280;47395;42.032;-8.634;2023-05-27T10:32:50;100919.88;;;26.13;47.72
61528;BME280;47395;42.032;-8.634;2023-05-27T10:34:52;100917.34;;;26.20;49.77
61528;BME280;47395;42.032;-8.634;2023-05-27T10:36:59;100922.63;;;26.05;50.46
61528;BME280;47395;42.032;-8.634;2023-05-27T10:39:16;100913.25;;;26.24;49.38
61528;BME280;47395;42.032;-8.634;2023-05-27T10:41:17;100915.56;;;26.44;48.29
61528;BME280;47395;42.032;-8.634;2023-05-27T10:43:18;100910.84;;;26.38;48.40
61528;BME280;47395;42.032;-8.634;2023-05-27T10:45:19;100903.56;;;26.46;49.78